createdAt,value
2023-02-13T00:00:06.624Z,68.35
2023-02-13T00:01:11.519Z,66.10
2023-02-13T00:02:14.428Z,68.97
2023-02-13T00:03:19.410Z,65.00
2023-02-13T00:04:21.604Z,64.07
2023-02-13T00:05:26.268Z,64.90
2023-02-13T00:06:31.040Z,66.15
2023-02-13T00:07:35.830Z,64.50
2023-02-13T00:08:40.645Z,65.40
2023-02-13T00:09:42.823Z,63.75
2023-02-13T00:10:47.573Z,60.72
2023-02-13T00:11:49.756Z,57.17
2023-02-13T00:12:54.509Z,62.42
2023-02-13T00:13:56.721Z,53.70
2023-02-13T00:15:02.061Z,54.70
2023-02-13T00:16:05.449Z,58.15
2023-02-13T00:17:10.509Z,56.80
2023-02-13T00:18:12.584Z,51.50
2023-02-13T00:19:17.339Z,44.63
2023-02-13T00:20:22.086Z,52.05
2023-02-13T00:21:24.170Z,47.67
2023-02-13T00:22:28.892Z,47.17
2023-02-13T00:23:35.005Z,51.38
2023-02-13T00:24:39.948Z,53.63
2023-02-13T00:25:42.079Z,51.53
2023-02-13T00:26:46.989Z,48.33
2023-02-13T00:27:51.112Z,52.95
2023-02-13T00:28:56.195Z,54.55
2023-02-13T00:29:58.338Z,55.22
2023-02-13T00:31:07.182Z,52.33
2023-02-13T00:32:09.792Z,46.80
2023-02-13T00:33:14.718Z,51.65
2023-02-13T00:34:16.853Z,49.45
2023-02-13T00:35:21.642Z,50.70
2023-02-13T00:36:24.627Z,48.25
2023-02-13T00:37:29.552Z,50.42
2023-02-13T00:38:34.376Z,51.42
2023-02-13T00:39:39.131Z,51.78
2023-02-13T00:40:41.701Z,55.13
2023-02-13T00:41:46.537Z,53.88
2023-02-13T00:42:48.713Z,54.97
2023-02-13T00:43:53.960Z,50.53
2023-02-13T00:44:56.322Z,60.58
2023-02-13T00:46:01.717Z,58.50
2023-02-13T00:47:04.067Z,58.22
2023-02-13T00:48:09.210Z,58.70
2023-02-13T00:49:11.362Z,58.42
2023-02-13T00:50:16.134Z,57.25
2023-02-13T00:51:18.283Z,57.50
2023-02-13T00:52:23.217Z,53.65
2023-02-13T00:53:26.749Z,58.65
2023-02-13T00:54:34.225Z,58.25
2023-02-13T00:55:36.703Z,60.38
2023-02-13T00:56:41.785Z,58.20
2023-02-13T00:57:44.231Z,54.22
2023-02-13T00:58:49.143Z,59.28
2023-02-13T00:59:51.873Z,58.38
2023-02-13T01:00:57.685Z,53.45
2023-02-13T01:02:00.344Z,52.60
2023-02-13T01:03:05.400Z,52.20
2023-02-13T01:04:07.651Z,57.28
2023-02-13T01:05:12.619Z,55.33
2023-02-13T01:06:14.813Z,56.05
2023-02-13T01:07:19.689Z,55.67
2023-02-13T01:08:21.930Z,54.30
2023-02-13T01:09:26.824Z,51.95
2023-02-13T01:10:31.638Z,53.35
2023-02-13T01:11:36.742Z,57.70
2023-02-13T01:12:39.004Z,59.22
2023-02-13T01:13:44.135Z,56.95
2023-02-13T01:14:46.564Z,60.70
2023-02-13T01:15:51.862Z,63.28
2023-02-13T01:16:54.020Z,65.07
2023-02-13T01:17:59.448Z,61.47
2023-02-13T01:19:01.604Z,69.82
2023-02-13T01:20:06.833Z,68.82
2023-02-13T01:21:15.698Z,67.35
2023-02-13T01:22:20.527Z,68.22
2023-02-13T01:23:22.714Z,65.75
2023-02-13T01:24:52.687Z,66.57
2023-02-13T01:26:00.476Z,72.40
2023-02-13T01:27:02.617Z,77.35
2023-02-13T01:28:07.696Z,76.25
2023-02-13T01:29:12.237Z,75.82
2023-02-13T01:30:18.683Z,76.38
2023-02-13T01:31:21.563Z,74.40
2023-02-13T01:32:26.433Z,75.85
2023-02-13T01:33:30.024Z,74.80
2023-02-13T01:34:35.045Z,74.95
2023-02-13T01:35:39.672Z,74.10
2023-02-13T01:36:44.456Z,80.18
2023-02-13T01:37:46.566Z,79.57
2023-02-13T01:38:51.430Z,73.93
2023-02-13T01:39:54.759Z,74.50
2023-02-13T01:41:02.094Z,75.18
2023-02-13T01:42:04.753Z,67.53
2023-02-13T01:43:12.780Z,67.32
2023-02-13T01:44:44.971Z,70.30
2023-02-13T01:46:54.038Z,66.30
2023-02-13T01:48:01.215Z,69.07
2023-02-13T01:49:07.006Z,61.80
2023-02-13T01:50:16.125Z,63.75
2023-02-13T01:51:23.599Z,57.97
2023-02-13T01:52:28.437Z,61.47
2023-02-13T01:53:36.044Z,62.15
2023-02-13T01:54:41.415Z,58.03
2023-02-13T01:56:04.656Z,60.25
2023-02-13T01:57:10.648Z,56.10
2023-02-13T01:58:19.250Z,62.78
2023-02-13T01:59:29.294Z,58.40
2023-02-13T02:00:31.636Z,57.75
2023-02-13T02:01:38.167Z,68.95
2023-02-13T02:02:45.077Z,57.95
2023-02-13T02:03:54.954Z,59.63
2023-02-13T02:04:57.367Z,62.17
2023-02-13T02:06:04.104Z,56.25
2023-02-13T02:07:11.307Z,58.28
2023-02-13T02:08:18.225Z,65.38
2023-02-13T02:09:24.004Z,58.95
2023-02-13T02:10:29.399Z,54.67
2023-02-13T02:11:41.260Z,54.72
2023-02-13T02:12:50.751Z,54.75
2023-02-13T02:13:54.465Z,60.08
2023-02-13T02:15:03.239Z,54.85
2023-02-13T02:16:05.936Z,56.38
2023-02-13T02:17:11.257Z,57.65
2023-02-13T02:18:16.140Z,57.38
2023-02-13T02:19:29.848Z,58.00
2023-02-13T02:20:59.306Z,62.00
2023-02-13T02:22:28.640Z,61.80
2023-02-13T02:23:59.058Z,51.25
2023-02-13T02:25:34.584Z,63.25
2023-02-13T02:27:03.972Z,57.33
2023-02-13T02:28:35.052Z,62.20
2023-02-13T02:30:05.390Z,58.70
2023-02-13T02:31:33.383Z,59.08
2023-02-13T02:32:57.278Z,50.83
2023-02-13T02:34:19.110Z,56.33
2023-02-13T02:35:33.542Z,58.35
2023-02-13T02:36:55.767Z,55.33
2023-02-13T02:38:08.646Z,55.53
2023-02-13T02:39:24.079Z,56.38
2023-02-13T02:40:37.349Z,57.92
2023-02-13T02:41:56.649Z,57.70
2023-02-13T02:43:13.994Z,55.08
2023-02-13T02:44:33.677Z,54.63
2023-02-13T02:45:40.250Z,53.42
2023-02-13T02:47:11.799Z,51.53
2023-02-13T02:48:41.032Z,53.92
2023-02-13T02:50:04.893Z,57.47
2023-02-13T02:51:18.158Z,55.20
2023-02-13T02:52:29.427Z,58.78
2023-02-13T02:53:38.554Z,52.28
2023-02-13T02:55:01.256Z,53.40
2023-02-13T02:56:13.452Z,57.17
2023-02-13T02:57:20.464Z,53.60
2023-02-13T02:58:42.968Z,51.60
2023-02-13T03:00:03.441Z,50.00
2023-02-13T03:01:23.722Z,57.83
2023-02-13T03:02:41.994Z,52.25
2023-02-13T03:04:02.436Z,57.92
2023-02-13T03:05:20.226Z,60.55
2023-02-13T03:06:30.322Z,54.15
2023-02-13T03:07:33.094Z,54.00
2023-02-13T03:08:50.214Z,55.42
2023-02-13T03:10:11.266Z,59.72
2023-02-13T03:11:29.005Z,54.67
2023-02-13T03:12:53.576Z,56.38
2023-02-13T03:14:01.141Z,55.47
2023-02-13T03:15:03.627Z,62.10
2023-02-13T03:16:21.730Z,62.95
2023-02-13T03:17:39.002Z,57.65
2023-02-13T03:18:59.456Z,56.08
2023-02-13T03:20:35.067Z,58.88
2023-02-13T03:22:02.772Z,54.42
2023-02-13T03:23:16.757Z,58.58
2023-02-13T03:24:30.823Z,53.05
2023-02-13T03:25:47.283Z,67.63
2023-02-13T03:26:57.832Z,54.88
2023-02-13T03:28:22.447Z,62.40
2023-02-13T03:29:52.955Z,59.30
2023-02-13T03:31:04.006Z,60.90
2023-02-13T03:32:16.133Z,60.42
2023-02-13T03:33:32.638Z,62.22
2023-02-13T03:34:53.418Z,53.88
2023-02-13T03:36:20.337Z,62.53
2023-02-13T03:37:46.028Z,58.22
2023-02-13T03:39:10.705Z,59.40
2023-02-13T03:40:18.472Z,52.70
2023-02-13T03:41:28.043Z,59.28
2023-02-13T03:42:36.044Z,61.10
2023-02-13T03:43:48.771Z,63.67
2023-02-13T03:45:12.411Z,52.92
2023-02-13T03:46:18.524Z,58.80
2023-02-13T03:47:20.787Z,58.65
2023-02-13T03:48:41.959Z,54.92
2023-02-13T03:50:02.988Z,58.50
2023-02-13T03:51:13.735Z,58.47
2023-02-13T03:52:22.697Z,61.60
2023-02-13T03:53:29.634Z,56.58
2023-02-13T03:54:51.374Z,61.13
2023-02-13T03:56:10.212Z,59.60
2023-02-13T03:57:33.123Z,56.83
2023-02-13T03:58:52.770Z,57.50
2023-02-13T04:00:00.362Z,54.08
2023-02-13T04:01:07.975Z,57.70
2023-02-13T04:02:16.638Z,57.30
2023-02-13T04:03:26.311Z,55.17
2023-02-13T04:04:38.596Z,54.35
2023-02-13T04:05:46.390Z,55.92
2023-02-13T04:06:54.438Z,55.80
2023-02-13T04:07:59.729Z,56.40
2023-02-13T04:09:02.041Z,56.50
2023-02-13T04:10:10.313Z,56.47
2023-02-13T04:11:18.394Z,55.25
2023-02-13T04:12:28.566Z,50.67
2023-02-13T04:13:35.679Z,47.88
2023-02-13T04:14:46.649Z,52.08
2023-02-13T04:15:54.794Z,52.25
2023-02-13T04:17:06.085Z,56.22
2023-02-13T04:18:14.050Z,62.60
2023-02-13T04:19:19.486Z,50.65
2023-02-13T04:20:21.968Z,52.20
2023-02-13T04:21:27.526Z,49.92
2023-02-13T04:22:32.210Z,54.78
2023-02-13T04:23:37.299Z,54.13
2023-02-13T04:24:39.387Z,54.13
2023-02-13T04:25:47.440Z,54.88
2023-02-13T04:26:49.623Z,54.42
2023-02-13T04:27:54.516Z,56.30
2023-02-13T04:28:56.563Z,59.90
2023-02-13T04:30:01.302Z,61.42
2023-02-13T04:31:03.518Z,60.75
2023-02-13T04:32:08.211Z,62.80
2023-02-13T04:33:10.179Z,53.45
2023-02-13T04:34:14.787Z,54.03
2023-02-13T04:35:18.160Z,58.60
2023-02-13T04:36:22.810Z,53.10
2023-02-13T04:37:27.491Z,56.53
2023-02-13T04:38:32.342Z,51.10
2023-02-13T04:39:37.861Z,53.92
2023-02-13T04:40:39.834Z,53.97
2023-02-13T04:41:44.587Z,54.75
2023-02-13T04:42:48.075Z,51.30
2023-02-13T04:43:52.945Z,55.25
2023-02-13T04:44:54.947Z,51.08
2023-02-13T04:45:59.794Z,58.03
2023-02-13T04:47:01.917Z,57.90
2023-02-13T04:48:06.923Z,61.03
2023-02-13T04:49:13.018Z,57.38
2023-02-13T04:50:15.212Z,51.17
2023-02-13T04:51:19.948Z,49.92
2023-02-13T04:52:21.970Z,59.13
2023-02-13T04:53:26.777Z,60.50
2023-02-13T04:54:31.492Z,50.83
2023-02-13T04:55:36.204Z,55.95
2023-02-13T04:56:38.221Z,54.70
2023-02-13T04:57:43.203Z,60.13
2023-02-13T04:58:45.312Z,55.70
2023-02-13T04:59:50.000Z,50.83
2023-02-13T05:00:52.085Z,53.72
2023-02-13T05:01:56.919Z,54.50
2023-02-13T05:03:04.384Z,57.17
2023-02-13T05:04:09.401Z,54.17
2023-02-13T05:05:11.532Z,56.33
2023-02-13T05:06:16.273Z,57.47
2023-02-13T05:07:18.407Z,53.83
2023-02-13T05:08:23.240Z,48.40
2023-02-13T05:09:25.477Z,50.22
2023-02-13T05:10:33.002Z,51.58
2023-02-13T05:11:35.034Z,52.20
2023-02-13T05:12:39.858Z,50.95
2023-02-13T05:13:42.168Z,50.38
2023-02-13T05:14:46.847Z,51.00
2023-02-13T05:15:49.188Z,54.53
2023-02-13T05:16:54.006Z,55.67
2023-02-13T05:17:55.979Z,55.35
2023-02-13T05:19:00.734Z,55.35
2023-02-13T05:20:02.862Z,58.20
2023-02-13T05:21:20.314Z,57.97
2023-02-13T05:22:37.497Z,60.63
2023-02-13T05:23:42.118Z,45.88
2023-02-13T05:24:44.118Z,52.78
2023-02-13T05:25:51.789Z,44.78
2023-02-13T05:26:53.943Z,47.20
2023-02-13T05:27:58.766Z,49.00
2023-02-13T05:29:15.856Z,50.15
2023-02-13T05:30:20.569Z,48.25
2023-02-13T05:31:22.725Z,44.50
2023-02-13T05:32:27.434Z,49.42
2023-02-13T05:33:29.516Z,49.42
2023-02-13T05:34:34.408Z,49.03
2023-02-13T05:35:36.518Z,49.85
2023-02-13T05:36:41.086Z,48.22
2023-02-13T05:37:43.129Z,48.58
2023-02-13T05:38:47.774Z,50.58
2023-02-13T05:39:49.823Z,47.15
2023-02-13T05:40:57.326Z,47.20
2023-02-13T05:42:04.848Z,47.47
2023-02-13T05:43:06.878Z,53.15
2023-02-13T05:44:12.116Z,51.50
2023-02-13T05:45:14.457Z,49.67
2023-02-13T05:46:19.226Z,53.92
2023-02-13T05:47:21.407Z,51.78
2023-02-13T05:48:26.137Z,53.58
2023-02-13T05:49:30.892Z,52.03
2023-02-13T05:50:32.993Z,50.25
2023-02-13T05:51:37.968Z,52.35
2023-02-13T05:52:39.950Z,51.25
2023-02-13T05:53:44.598Z,45.85
2023-02-13T05:54:46.745Z,50.70
2023-02-13T05:55:52.328Z,47.78
2023-02-13T05:56:57.183Z,52.90
2023-02-13T05:58:02.051Z,54.95
2023-02-13T05:59:04.607Z,54.58
2023-02-13T06:00:10.725Z,56.00
2023-02-13T06:01:13.066Z,54.83
2023-02-13T06:02:17.770Z,52.80
2023-02-13T06:03:19.953Z,46.13
2023-02-13T06:04:24.860Z,44.92
2023-02-13T06:05:26.966Z,54.75
2023-02-13T06:06:31.900Z,57.47
2023-02-13T06:07:37.279Z,54.72
2023-02-13T06:08:39.493Z,60.83
2023-02-13T06:09:47.154Z,59.08
2023-02-13T06:10:49.364Z,55.63
2023-02-13T06:11:54.275Z,54.78
2023-02-13T06:12:59.052Z,56.83
2023-02-13T06:14:03.790Z,53.78
2023-02-13T06:15:07.454Z,58.13
2023-02-13T06:16:13.454Z,57.88
2023-02-13T06:17:18.217Z,58.17
2023-02-13T06:18:20.406Z,53.97
2023-02-13T06:19:25.176Z,62.78
2023-02-13T06:20:27.282Z,54.33
2023-02-13T06:21:33.531Z,54.08
2023-02-13T06:22:35.712Z,60.78
2023-02-13T06:23:41.307Z,53.58
2023-02-13T06:24:43.445Z,51.83
2023-02-13T06:25:48.241Z,53.10
2023-02-13T06:26:52.968Z,52.63
2023-02-13T06:27:55.221Z,51.25
2023-02-13T06:29:03.577Z,57.47
2023-02-13T06:30:08.162Z,54.30
2023-02-13T06:31:13.033Z,52.83
2023-02-13T06:32:15.220Z,53.80
2023-02-13T06:33:19.908Z,54.00
2023-02-13T06:34:22.132Z,51.10
2023-02-13T06:35:27.508Z,46.78
2023-02-13T06:36:32.397Z,49.15
2023-02-13T06:37:34.963Z,52.47
2023-02-13T06:38:39.696Z,54.85
2023-02-13T06:39:42.900Z,53.55
2023-02-13T06:40:47.581Z,51.15
2023-02-13T06:41:49.600Z,59.50
2023-02-13T06:42:54.365Z,56.10
2023-02-13T06:43:56.603Z,53.92
2023-02-13T06:45:03.894Z,54.03
2023-02-13T06:46:06.760Z,60.92
2023-02-13T06:47:11.462Z,53.20
2023-02-13T06:48:13.792Z,62.33
2023-02-13T06:49:18.541Z,57.17
2023-02-13T06:50:20.883Z,56.67
2023-02-13T06:51:25.724Z,55.83
2023-02-13T06:52:28.012Z,52.78
2023-02-13T06:53:33.217Z,49.30
2023-02-13T06:54:46.822Z,43.55
2023-02-13T06:55:52.596Z,52.28
2023-02-13T06:56:54.723Z,56.55
2023-02-13T06:57:59.497Z,57.35
2023-02-13T06:59:04.431Z,56.20
2023-02-13T07:00:13.390Z,48.25
2023-02-13T07:01:18.190Z,58.15
2023-02-13T07:02:20.403Z,63.20
2023-02-13T07:03:25.294Z,52.85
2023-02-13T07:04:28.260Z,55.58
2023-02-13T07:05:33.187Z,58.50
2023-02-13T07:06:37.883Z,56.35
2023-02-13T07:07:41.906Z,52.00
2023-02-13T07:08:46.703Z,57.75
2023-02-13T07:09:48.757Z,60.00
2023-02-13T07:10:53.485Z,56.97
2023-02-13T07:11:55.481Z,54.47
2023-02-13T07:13:05.643Z,66.22
2023-02-13T07:14:09.035Z,59.33
2023-02-13T07:15:16.227Z,56.85
2023-02-13T07:16:21.421Z,64.72
2023-02-13T07:17:26.920Z,53.67
2023-02-13T07:18:29.029Z,57.22
2023-02-13T07:19:34.688Z,59.47
2023-02-13T07:20:39.716Z,53.17
2023-02-13T07:21:41.871Z,55.08
2023-02-13T07:22:46.606Z,58.15
2023-02-13T07:23:48.748Z,52.47
2023-02-13T07:24:53.493Z,56.38
2023-02-13T07:25:58.272Z,53.30
2023-02-13T07:27:00.387Z,56.88
2023-02-13T07:28:06.355Z,53.47
2023-02-13T07:29:12.256Z,56.83
2023-02-13T07:30:17.687Z,56.00
2023-02-13T07:31:22.448Z,53.30
2023-02-13T07:32:24.955Z,55.30
2023-02-13T07:33:29.641Z,58.25
2023-02-13T07:34:31.708Z,49.88
2023-02-13T07:35:37.789Z,49.42
2023-02-13T07:36:42.506Z,52.00
2023-02-13T07:37:47.181Z,54.42
2023-02-13T07:38:49.310Z,57.13
2023-02-13T07:39:54.111Z,54.17
2023-02-13T07:40:59.265Z,56.80
2023-02-13T07:42:04.035Z,56.95
2023-02-13T07:43:08.903Z,55.25
2023-02-13T07:44:11.336Z,56.97
2023-02-13T07:45:16.282Z,58.88
2023-02-13T07:46:21.252Z,60.88
2023-02-13T07:47:25.936Z,64.32
2023-02-13T07:48:31.926Z,61.65
2023-02-13T07:49:34.475Z,64.93
2023-02-13T07:50:39.436Z,64.40
2023-02-13T07:51:44.392Z,64.90
2023-02-13T07:52:56.470Z,66.78
2023-02-13T07:53:58.527Z,64.72
2023-02-13T07:55:03.347Z,63.25
2023-02-13T07:56:09.477Z,66.05
2023-02-13T07:57:14.325Z,66.00
2023-02-13T07:58:19.061Z,67.45
2023-02-13T07:59:21.221Z,72.38
2023-02-13T08:00:26.532Z,67.40
2023-02-13T08:01:33.996Z,63.85
2023-02-13T08:02:36.118Z,62.65
2023-02-13T08:03:41.093Z,61.28
2023-02-13T08:04:48.030Z,59.63
2023-02-13T08:05:52.766Z,62.08
2023-02-13T08:06:57.479Z,48.58
2023-02-13T08:08:00.224Z,62.20
2023-02-13T08:09:17.557Z,66.20
2023-02-13T08:10:35.497Z,68.70
2023-02-13T08:11:52.649Z,65.25
2023-02-13T08:12:57.754Z,65.05
2023-02-13T08:13:59.864Z,61.10
2023-02-13T08:15:04.611Z,61.00
2023-02-13T08:16:07.064Z,56.60
2023-02-13T08:17:15.026Z,41.30
2023-02-13T08:18:20.194Z,35.25
2023-02-13T08:19:24.981Z,38.55
2023-02-13T08:20:29.760Z,28.27
2023-02-13T08:21:35.449Z,33.72
2023-02-13T08:22:41.098Z,34.63
2023-02-13T08:23:43.569Z,23.77
2023-02-13T08:24:48.337Z,26.45
2023-02-13T08:25:50.581Z,29.77
2023-02-13T08:26:55.457Z,27.90
2023-02-13T08:28:00.512Z,29.98
2023-02-13T08:29:05.261Z,27.95
2023-02-13T08:30:11.709Z,26.90
2023-02-13T08:31:13.948Z,32.38
2023-02-13T08:32:21.507Z,32.92
2023-02-13T08:33:27.100Z,32.20
2023-02-13T08:34:29.237Z,25.45
2023-02-13T08:35:34.104Z,29.58
2023-02-13T08:36:36.325Z,21.88
2023-02-13T08:37:41.144Z,27.15
2023-02-13T08:38:45.980Z,25.42
2023-02-13T08:39:50.804Z,26.90
2023-02-13T08:40:53.197Z,21.65
2023-02-13T08:41:58.016Z,20.90
2023-02-13T08:43:04.098Z,27.55
2023-02-13T08:44:08.907Z,27.75
2023-02-13T08:45:11.963Z,31.15
2023-02-13T08:46:17.063Z,27.98
2023-02-13T08:47:24.687Z,26.70
2023-02-13T08:48:29.537Z,31.45
2023-02-13T08:49:34.382Z,24.85
2023-02-13T08:51:30.808Z,18.23
2023-02-13T08:58:39.620Z,27.33
2023-02-13T08:59:49.904Z,22.50
2023-02-13T09:01:01.699Z,24.23
2023-02-13T09:02:12.189Z,23.05
2023-02-13T09:03:20.363Z,33.50
2023-02-13T09:04:25.380Z,29.02
2023-02-13T09:05:31.845Z,24.38
2023-02-13T09:06:36.798Z,34.45
2023-02-13T09:07:41.543Z,29.92
2023-02-13T09:08:46.498Z,33.03
2023-02-13T09:09:51.407Z,23.42
2023-02-13T09:11:01.341Z,22.67
2023-02-13T09:12:06.429Z,27.35
2023-02-13T09:13:11.237Z,24.92
2023-02-13T09:14:16.178Z,29.45
2023-02-13T09:15:21.113Z,33.45
2023-02-13T09:16:26.778Z,33.22
2023-02-13T09:17:28.975Z,32.53
2023-02-13T09:18:37.320Z,29.13
2023-02-13T09:19:42.126Z,28.80
2023-02-13T09:20:46.904Z,29.67
2023-02-13T09:21:51.647Z,30.48
2023-02-13T09:22:58.757Z,26.25
2023-02-13T09:24:03.501Z,32.25
2023-02-13T09:25:12.339Z,27.35
2023-02-13T09:26:20.433Z,32.05
2023-02-13T09:27:25.627Z,30.90
2023-02-13T09:28:30.484Z,27.90
2023-02-13T09:29:35.347Z,18.38
2023-02-13T09:30:37.498Z,36.22
2023-02-13T09:31:42.496Z,30.15
2023-02-13T09:32:47.401Z,30.63
2023-02-13T09:33:55.057Z,58.03
2023-02-13T09:35:00.626Z,28.67
2023-02-13T09:36:08.527Z,21.70
2023-02-13T09:37:10.908Z,30.70
2023-02-13T09:38:16.006Z,28.70
2023-02-13T09:39:21.191Z,24.58
2023-02-13T09:40:28.272Z,27.50
2023-02-13T09:41:36.423Z,32.00
2023-02-13T09:42:38.879Z,27.90
2023-02-13T09:43:48.041Z,27.50
2023-02-13T09:44:51.866Z,28.17
2023-02-13T09:45:58.964Z,23.27
2023-02-13T09:47:08.422Z,29.13
2023-02-13T09:48:22.964Z,24.48
2023-02-13T09:49:35.232Z,29.45
2023-02-13T09:50:41.257Z,28.85
2023-02-13T09:51:48.166Z,30.02
2023-02-13T09:52:54.878Z,24.70
2023-02-13T09:54:03.197Z,26.52
2023-02-13T09:55:18.548Z,25.38
2023-02-13T09:56:40.510Z,27.50
2023-02-13T09:59:01.545Z,23.55
2023-02-13T10:00:14.744Z,35.00
2023-02-13T10:03:29.314Z,40.33
2023-02-13T10:04:50.944Z,32.33
2023-02-13T10:06:02.927Z,28.25
2023-02-13T10:07:23.521Z,34.58
2023-02-13T10:08:57.900Z,36.95
2023-02-13T10:10:05.947Z,23.20
2023-02-13T10:11:26.045Z,19.67
2023-02-13T10:12:49.934Z,30.05
2023-02-13T10:14:10.531Z,20.48
2023-02-13T10:15:25.265Z,31.65
2023-02-13T10:16:33.464Z,49.05
2023-02-13T10:17:39.933Z,47.28
2023-02-13T10:18:51.228Z,36.03
2023-02-13T10:20:04.446Z,64.40
2023-02-13T10:21:11.963Z,483.80
2023-02-13T10:22:19.579Z,491.50
2023-02-13T10:23:30.227Z,27.38
2023-02-13T10:24:39.338Z,31.60
2023-02-13T10:25:51.042Z,39.72
2023-02-13T10:28:08.418Z,26.15
2023-02-13T10:29:33.210Z,31.42
2023-02-13T10:30:44.185Z,33.83
2023-02-13T10:31:49.917Z,29.55
2023-02-13T10:33:14.370Z,28.48
2023-02-13T10:34:20.647Z,28.55
2023-02-13T10:35:34.145Z,17.00
2023-02-13T10:36:44.451Z,36.47
2023-02-13T10:37:52.467Z,218.10
2023-02-13T10:39:00.764Z,369.83
2023-02-13T10:40:05.484Z,693.45
2023-02-13T10:41:26.731Z,776.15
2023-02-13T10:42:44.269Z,802.70
2023-02-13T10:44:00.135Z,264.38
2023-02-13T10:45:17.647Z,421.67
2023-02-13T10:46:27.932Z,51.17
2023-02-13T10:47:48.774Z,196.43
2023-02-13T10:49:11.812Z,404.58
2023-02-13T10:50:25.886Z,706.28
2023-02-13T10:51:40.334Z,722.80
2023-02-13T10:52:54.848Z,503.15
2023-02-13T10:54:30.434Z,280.48
2023-02-13T10:55:55.874Z,139.30
2023-02-13T10:57:11.795Z,285.15
2023-02-13T10:58:20.464Z,39.55
2023-02-13T10:59:40.637Z,151.50
2023-02-13T11:00:51.694Z,620.30
2023-02-13T11:01:59.778Z,347.63
2023-02-13T11:03:04.803Z,362.67
2023-02-13T11:04:13.267Z,396.08
2023-02-13T11:05:21.448Z,311.30
2023-02-13T11:06:23.537Z,493.48
2023-02-13T11:07:33.230Z,158.73
2023-02-13T11:08:39.528Z,299.83
2023-02-13T11:09:47.356Z,604.30
2023-02-13T11:10:52.721Z,771.65
2023-02-13T11:11:57.690Z,602.67
2023-02-13T11:13:19.104Z,391.48
2023-02-13T11:14:25.322Z,808.05
2023-02-13T11:15:32.271Z,830.78
2023-02-13T11:16:40.671Z,814.05
2023-02-13T11:17:46.822Z,486.38
2023-02-13T11:18:53.510Z,859.10
2023-02-13T11:20:00.166Z,865.33
2023-02-13T11:21:09.554Z,701.80
2023-02-13T11:22:16.919Z,811.00
2023-02-13T11:23:40.892Z,481.35
2023-02-13T11:24:55.668Z,733.92
2023-02-13T11:26:04.156Z,859.85
2023-02-13T11:27:13.890Z,714.67
2023-02-13T11:28:23.222Z,846.50
2023-02-13T11:29:31.158Z,732.75
2023-02-13T11:30:35.414Z,841.30
2023-02-13T11:31:41.355Z,711.95
2023-02-13T11:33:00.702Z,760.20
2023-02-13T11:34:27.678Z,698.22
2023-02-13T11:35:35.786Z,658.97
2023-02-13T11:36:40.710Z,582.42
2023-02-13T11:37:45.351Z,735.30
2023-02-13T11:38:58.421Z,812.67
2023-02-13T11:40:23.543Z,859.95
2023-02-13T11:41:29.125Z,851.20
2023-02-13T11:42:36.535Z,849.55
2023-02-13T11:43:47.791Z,838.70
2023-02-13T11:44:56.404Z,565.72
2023-02-13T11:46:04.211Z,757.90
2023-02-13T11:47:09.807Z,625.08
2023-02-13T11:48:24.783Z,836.40
2023-02-13T11:49:32.753Z,853.03
2023-02-13T11:50:38.996Z,853.97
2023-02-13T11:51:47.641Z,696.72
2023-02-13T11:54:32.572Z,608.00
2023-02-13T11:55:38.938Z,715.03
2023-02-13T11:57:04.157Z,822.42
2023-02-13T11:58:27.907Z,799.53
2023-02-13T11:59:36.012Z,829.03
2023-02-13T12:00:43.518Z,871.42
2023-02-13T12:01:49.356Z,834.75
2023-02-13T12:02:54.178Z,764.88
2023-02-13T12:04:04.705Z,803.97
2023-02-13T12:05:21.287Z,814.75
2023-02-13T12:06:25.964Z,810.30
2023-02-13T12:07:32.980Z,547.08
2023-02-13T12:08:40.324Z,603.50
2023-02-13T12:09:50.788Z,265.73
2023-02-13T12:10:57.260Z,44.38
2023-02-13T12:12:06.646Z,34.33
2023-02-13T12:13:18.392Z,127.90
2023-02-13T12:14:24.851Z,110.93
2023-02-13T12:15:31.937Z,26.10
2023-02-13T12:16:43.375Z,30.15
2023-02-13T12:17:51.031Z,25.48
2023-02-13T12:18:58.839Z,28.65
2023-02-13T12:20:04.132Z,24.23
2023-02-13T12:21:22.848Z,27.20
2023-02-13T12:22:40.463Z,24.40
2023-02-13T12:23:52.429Z,25.55
2023-02-13T12:25:40.721Z,24.60
2023-02-13T12:26:47.453Z,25.42
2023-02-13T12:28:05.888Z,23.63
2023-02-13T12:29:45.548Z,20.08
2023-02-13T12:31:09.670Z,24.10
2023-02-13T12:32:22.398Z,24.25
2023-02-13T12:33:44.129Z,29.95
2023-02-13T12:35:04.676Z,25.80
2023-02-13T12:36:17.439Z,24.40
2023-02-13T12:37:37.151Z,25.40
2023-02-13T12:39:02.623Z,36.95
2023-02-13T12:40:30.915Z,28.10
2023-02-13T12:41:46.589Z,26.15
2023-02-13T12:43:00.666Z,27.33
2023-02-13T12:44:22.952Z,35.53
2023-02-13T12:45:37.968Z,27.33
2023-02-13T12:46:53.459Z,24.35
2023-02-13T12:48:24.470Z,30.08
2023-02-13T12:49:45.421Z,28.40
2023-02-13T12:51:02.281Z,26.63
2023-02-13T12:52:22.651Z,28.55
2023-02-13T12:53:45.083Z,29.65
2023-02-13T12:55:01.804Z,21.25
2023-02-13T12:56:20.536Z,28.10
2023-02-13T12:57:42.974Z,21.67
2023-02-13T12:59:03.740Z,27.85
2023-02-13T13:00:27.102Z,28.65
2023-02-13T13:01:52.480Z,26.67
2023-02-13T13:03:25.478Z,26.38
2023-02-13T13:04:41.741Z,28.42
2023-02-13T13:06:11.810Z,26.33
2023-02-13T13:07:41.726Z,25.90
2023-02-13T13:09:23.910Z,24.60
2023-02-13T13:10:40.982Z,28.10
2023-02-13T13:12:11.284Z,25.65
2023-02-13T13:13:27.945Z,23.42
2023-02-13T13:14:41.181Z,37.90
2023-02-13T13:15:55.457Z,28.75
2023-02-13T13:17:08.598Z,26.42
2023-02-13T13:18:32.653Z,25.73
2023-02-13T13:19:47.630Z,34.53
2023-02-13T13:21:01.117Z,36.97
2023-02-13T13:22:11.951Z,26.63
2023-02-13T13:23:20.826Z,25.48
2023-02-13T13:24:36.063Z,26.77
2023-02-13T13:25:50.141Z,27.98
2023-02-13T13:26:54.875Z,24.65
2023-02-13T13:28:05.294Z,18.48
2023-02-13T13:29:19.254Z,28.38
2023-02-13T13:30:29.033Z,26.85
2023-02-13T13:31:37.261Z,38.25
2023-02-13T13:32:43.560Z,26.38
2023-02-13T13:33:50.060Z,22.50
2023-02-13T13:34:55.272Z,22.67
2023-02-13T13:36:06.998Z,26.00
2023-02-13T13:37:19.299Z,26.85
2023-02-13T13:38:33.164Z,25.05
2023-02-13T13:39:50.437Z,29.00
2023-02-13T13:41:01.529Z,35.17
2023-02-13T13:42:17.151Z,27.42
2023-02-13T13:43:32.618Z,21.02
2023-02-13T13:45:00.867Z,24.63
2023-02-13T13:46:14.280Z,31.42
2023-02-13T13:47:29.240Z,23.15
2023-02-13T13:49:01.290Z,24.25
2023-02-13T13:50:07.972Z,22.00
2023-02-13T13:51:20.496Z,24.38
2023-02-13T13:52:28.313Z,24.48
2023-02-13T13:53:30.541Z,23.50
2023-02-13T13:54:38.832Z,23.35
2023-02-13T13:56:02.523Z,26.83
2023-02-13T13:57:14.620Z,22.80
2023-02-13T13:58:25.183Z,17.65
2023-02-13T13:59:59.653Z,23.77
2023-02-13T14:01:23.222Z,14.45
2023-02-13T14:02:44.463Z,25.45
2023-02-13T14:03:50.580Z,21.38
2023-02-13T14:05:02.866Z,22.52
2023-02-13T14:06:10.670Z,23.83
2023-02-13T14:07:25.985Z,21.98
2023-02-13T14:09:09.714Z,23.52
2023-02-13T14:10:59.863Z,23.33
2023-02-13T14:12:45.160Z,20.90
2023-02-13T14:13:47.312Z,19.30
2023-02-13T14:14:52.690Z,21.92
2023-02-13T14:15:57.636Z,16.25
2023-02-13T14:17:05.578Z,23.25
2023-02-13T14:18:22.310Z,22.38
2023-02-13T14:19:29.902Z,18.90
2023-02-13T14:20:39.080Z,22.02
2023-02-13T14:21:43.687Z,28.15
2023-02-13T14:22:48.533Z,26.40
2023-02-13T14:23:53.709Z,23.85
2023-02-13T14:24:57.767Z,26.85
2023-02-13T14:26:36.335Z,25.30
2023-02-13T14:27:42.445Z,24.92
2023-02-13T14:28:59.796Z,25.30
2023-02-13T14:30:05.056Z,24.65
2023-02-13T14:31:16.994Z,26.73
2023-02-13T14:32:28.047Z,24.08
2023-02-13T14:33:35.165Z,24.00
2023-02-13T14:34:42.337Z,25.70
2023-02-13T14:35:47.156Z,25.73
2023-02-13T14:37:05.752Z,23.58
2023-02-13T14:38:28.230Z,24.20
2023-02-13T14:39:35.649Z,28.67
2023-02-13T14:40:49.859Z,29.42
2023-02-13T14:42:05.011Z,23.73
2023-02-13T14:43:37.587Z,16.33
2023-02-13T14:44:50.003Z,25.45
2023-02-13T14:45:58.162Z,23.35
2023-02-13T14:47:04.814Z,27.70
2023-02-13T14:48:17.287Z,26.90
2023-02-13T14:49:26.244Z,20.90
2023-02-13T14:50:31.037Z,24.88
2023-02-13T14:51:40.188Z,27.17
2023-02-13T14:52:46.634Z,24.05
2023-02-13T14:53:55.606Z,26.50
2023-02-13T14:55:06.770Z,27.88
2023-02-13T14:56:18.976Z,19.98
2023-02-13T14:57:28.380Z,21.85
2023-02-13T14:58:36.147Z,29.02
2023-02-13T14:59:46.446Z,27.38
2023-02-13T15:00:55.201Z,26.33
2023-02-13T15:02:03.656Z,20.45
2023-02-13T15:03:23.228Z,25.23